Time;durP1;ratioP1;P1;durP2;ratioP2;P2;SDS_P1;SDS_P2;PMS_P1;PMS_P2;Temp;Humidity;BMP_temperature;BMP_pressure;BME280_temperature;BME280_humidity;BME280_pressure;Samples;Min_cycle;Max_cycle;Signal;HPM_P1;HPM_P2
2021/04/26 00:01:34;;;;;;;9.80;2.60;;;5.80;58.00;;;;;;5014860;28;20486;-46
2021/04/26 00:04:01;;;;;;;4.07;2.58;;;5.80;57.60;;;;;;5032185;28;20466;-46
2021/04/26 00:06:27;;;;;;;5.10;2.07;;;5.70;58.50;;;;;;5032535;28;20216;-46
2021/04/26 00:08:54;;;;;;;2.47;1.83;;;6.00;58.40;;;;;;5032551;28;20522;-46
2021/04/26 00:11:21;;;;;;;5.45;2.70;;;5.70;58.50;;;;;;5032413;28;20435;-47
2021/04/26 00:13:47;;;;;;;4.83;1.77;;;5.80;58.10;;;;;;5031958;28;20320;-47
2021/04/26 00:16:14;;;;;;;4.40;2.57;;;5.60;57.60;;;;;;5032091;28;20495;-47
2021/04/26 00:18:40;;;;;;;4.60;1.90;;;5.60;57.80;;;;;;5032126;28;20510;-45
2021/04/26 00:21:06;;;;;;;5.97;2.30;;;5.60;57.70;;;;;;5032609;28;20522;-46
2021/04/26 00:23:33;;;;;;;2.87;2.00;;;5.70;57.30;;;;;;5031920;28;20307;-47
2021/04/26 00:25:59;;;;;;;2.80;1.80;;;5.70;57.50;;;;;;5031246;28;20547;-48
2021/04/26 00:28:26;;;;;;;4.70;1.70;;;5.80;57.30;;;;;;5032119;28;20227;-47
2021/04/26 00:30:53;;;;;;;3.83;1.37;;;5.50;57.20;;;;;;5032123;28;20285;-46
2021/04/26 00:33:19;;;;;;;1.60;1.50;;;5.90;57.40;;;;;;5032205;28;20431;-46
2021/04/26 00:35:45;;;;;;;3.95;1.67;;;5.50;56.90;;;;;;5033939;28;20199;-47
2021/04/26 00:38:11;;;;;;;3.92;1.70;;;5.60;56.90;;;;;;5037233;28;20538;-47
2021/04/26 00:40:39;;;;;;;4.13;1.52;;;5.50;56.30;;;;;;5038473;28;20239;-48
2021/04/26 00:43:05;;;;;;;4.43;1.70;;;5.50;56.60;;;;;;5037381;28;20252;-47
2021/04/26 00:45:32;;;;;;;2.63;1.42;;;5.70;56.20;;;;;;5036744;28;20370;-46
2021/04/26 00:47:58;;;;;;;2.55;1.45;;;5.60;56.00;;;;;;5036273;28;20252;-45
2021/04/26 00:50:27;;;;;;;5.05;1.90;;;5.30;55.90;;;;;;5035686;28;20188;-46
2021/04/26 00:52:54;;;;;;;4.60;1.35;;;5.10;55.40;;;;;;5017107;28;20197;-45
2021/04/26 00:55:23;;;;;;;3.08;1.40;;;5.30;55.70;;;;;;5016723;28;20204;-46
2021/04/26 00:57:50;;;;;;;5.10;2.10;;;5.40;56.20;;;;;;5034617;28;20212;-46
2021/04/26 01:00:17;;;;;;;4.13;1.50;;;5.40;56.30;;;;;;5034330;28;20201;-46
2021/04/26 01:02:44;;;;;;;3.20;1.50;;;5.40;55.80;;;;;;5033671;28;20197;-46
2021/04/26 01:05:14;;;;;;;2.28;1.25;;;5.40;56.30;;;;;;5034294;28;20279;-45
2021/04/26 01:07:43;;;;;;;2.30;1.33;;;5.30;55.90;;;;;;5015907;28;20285;-47
2021/04/26 01:10:14;;;;;;;4.25;1.52;;;5.20;56.20;;;;;;5015628;28;20204;-46
2021/04/26 01:12:53;;;;;;;2.50;1.13;;;5.20;56.40;;;;;;5015026;28;20196;-47
2021/04/26 01:15:25;;;;;;;2.13;1.00;;;5.20;56.50;;;;;;5016968;28;20220;-46
2021/04/26 01:17:57;;;;;;;3.97;1.77;;;5.40;56.60;;;;;;5019803;28;20220;-46
2021/04/26 01:20:50;;;;;;;3.75;1.25;;;5.40;56.60;;;;;;5018455;28;20201;-46
2021/04/26 01:23:44;;;;;;;3.70;1.73;;;5.40;56.70;;;;;;5016488;28;20208;-46
2021/04/26 01:26:24;;;;;;;4.55;1.85;;;5.20;56.70;;;;;;5014635;28;20224;-47
2021/04/26 01:29:03;;;;;;;4.03;1.42;;;5.30;56.70;;;;;;5013894;28;20198;-47
2021/04/26 01:31:40;;;;;;;4.60;1.88;;;5.30;56.90;;;;;;5031722;28;20250;-46
2021/04/26 01:34:08;;;;;;;5.50;1.88;;;5.10;56.80;;;;;;5013632;28;20689;-47
2021/04/26 01:36:53;;;;;;;3.05;1.58;;;5.00;56.70;;;;;;5033005;28;20230;-47
2021/04/26 01:39:22;;;;;;;2.88;1.63;;;5.00;56.50;;;;;;5017241;28;20205;-44
2021/04/26 01:41:49;;;;;;;2.20;1.60;;;5.00;56.90;;;;;;5017547;28;20209;-46
2021/04/26 01:44:18;;;;;;;3.03;1.55;;;4.90;57.00;;;;;;5017170;28;20584;-46
2021/04/26 01:46:45;;;;;;;2.85;1.20;;;4.50;57.00;;;;;;5034848;28;20500;-46
2021/04/26 01:49:13;;;;;;;2.88;1.45;;;5.00;57.50;;;;;;5034732;28;20208;-47
2021/04/26 01:51:41;;;;;;;3.38;1.42;;;4.50;57.10;;;;;;5016973;28;20196;-46
2021/04/26 01:54:08;;;;;;;4.90;1.60;;;5.20;58.00;;;;;;5016570;28;20223;-47
2021/04/26 01:56:36;;;;;;;4.10;1.58;;;4.90;57.90;;;;;;5034778;28;20216;-46
2021/04/26 01:59:06;;;;;;;4.75;1.55;;;4.80;57.60;;;;;;5017113;28;20243;-46
2021/04/26 02:01:33;;;;;;;4.53;1.30;;;4.80;57.40;;;;;;5034720;28;20200;-46
2021/04/26 02:04:06;;;;;;;2.47;1.38;;;4.90;58.00;;;;;;5016408;28;20276;-46
2021/04/26 02:07:04;;;;;;;4.05;1.38;;;5.00;58.20;;;;;;5016606;28;20237;-46
2021/04/26 02:09:31;;;;;;;3.35;1.55;;;4.80;58.20;;;;;;5034371;28;20238;-47
2021/04/26 02:12:06;;;;;;;2.05;1.50;;;4.80;58.20;;;;;;5015907;28;20323;-46
2021/04/26 02:14:39;;;;;;;3.05;1.40;;;4.90;58.30;;;;;;5016005;28;20293;-46
2021/04/26 02:17:05;;;;;;;3.05;1.65;;;4.60;58.30;;;;;;5016547;28;20228;-45
2021/04/26 02:19:33;;;;;;;5.45;1.50;;;5.00;58.00;;;;;;5016521;28;20755;-48
2021/04/26 02:21:59;;;;;;;2.03;1.20;;;4.70;58.50;;;;;;5034231;28;20680;-46
2021/04/26 02:24:28;;;;;;;2.65;1.30;;;4.70;58.50;;;;;;5033945;28;20224;-47
2021/04/26 02:26:58;;;;;;;2.53;1.40;;;4.90;58.90;;;;;;5016358;28;20228;-51
2021/04/26 02:29:25;;;;;;;3.30;1.30;;;4.90;59.20;;;;;;5016413;28;20213;-49
2021/04/26 02:31:55;;;;;;;3.00;1.58;;;4.80;59.40;;;;;;5034232;28;20204;-48
2021/04/26 02:34:26;;;;;;;3.58;1.50;;;4.20;59.20;;;;;;5016388;28;20204;-50
2021/04/26 02:37:00;;;;;;;4.28;1.98;;;4.70;59.60;;;;;;5016113;28;20655;-47
2021/04/26 02:39:30;;;;;;;2.60;1.60;;;4.70;59.70;;;;;;5016116;28;20205;-48
2021/04/26 02:41:58;;;;;;;3.90;1.58;;;4.80;59.60;;;;;;5016231;28;20201;-47
2021/04/26 02:44:27;;;;;;;2.92;1.77;;;4.70;59.10;;;;;;5015648;28;20212;-49
2021/04/26 02:47:02;;;;;;;5.18;1.67;;;4.70;59.90;;;;;;5016260;28;20221;-48
2021/04/26 02:49:30;;;;;;;5.97;2.00;;;4.70;59.60;;;;;;5015809;28;20247;-50
2021/04/26 02:52:00;;;;;;;3.95;1.80;;;4.70;60.10;;;;;;5033973;28;20205;-47
2021/04/26 02:54:28;;;;;;;3.75;1.60;;;4.70;59.70;;;;;;5033816;28;20211;-48
2021/04/26 02:56:56;;;;;;;4.72;1.45;;;4.60;60.20;;;;;;5015958;28;20244;-48
2021/04/26 02:59:24;;;;;;;4.57;1.60;;;4.70;60.30;;;;;;5033952;28;20205;-49
2021/04/26 03:01:55;;;;;;;3.53;2.00;;;4.50;60.10;;;;;;5015849;28;20201;-47
2021/04/26 03:04:32;;;;;;;5.60;1.63;;;4.50;59.80;;;;;;5021068;28;20197;-48
2021/04/26 03:07:03;;;;;;;6.82;2.03;;;4.60;60.30;;;;;;5016959;28;20354;-46
2021/04/26 03:09:48;;;;;;;2.85;2.00;;;4.40;59.70;;;;;;5016622;28;20295;-47
2021/04/26 03:12:15;;;;;;;3.38;1.90;;;4.30;60.30;;;;;;5034358;28;20212;-48
2021/04/26 03:14:44;;;;;;;9.68;2.25;;;4.50;60.90;;;;;;5016649;28;20211;-48
2021/04/26 03:17:12;;;;;;;6.00;1.75;;;4.40;61.10;;;;;;5015899;28;20303;-49
2021/04/26 03:19:44;;;;;;;5.80;2.65;;;4.10;60.90;;;;;;5016014;28;20203;-48
2021/04/26 03:22:13;;;;;;;6.93;1.98;;;4.40;60.60;;;;;;5016290;28;20555;-48
2021/04/26 03:24:42;;;;;;;4.50;1.52;;;4.40;61.70;;;;;;5015002;28;20205;-49
2021/04/26 03:27:11;;;;;;;3.40;1.52;;;4.30;61.00;;;;;;5015072;28;20263;-48
2021/04/26 03:29:39;;;;;;;3.22;1.60;;;4.20;62.00;;;;;;5015113;28;20566;-50
2021/04/26 03:32:06;;;;;;;3.10;2.13;;;4.10;62.10;;;;;;5015906;28;20288;-49
2021/04/26 03:34:44;;;;;;;2.03;1.60;;;4.10;61.50;;;;;;5016611;28;20228;-48
2021/04/26 03:37:15;;;;;;;7.30;2.20;;;4.00;62.70;;;;;;5033905;28;20231;-45
2021/04/26 03:39:42;;;;;;;7.63;2.15;;;4.10;63.20;;;;;;5015075;28;20204;-46
2021/04/26 03:42:08;;;;;;;2.97;1.48;;;4.10;63.40;;;;;;5033084;28;20200;-46
2021/04/26 03:44:37;;;;;;;4.78;1.60;;;4.10;63.20;;;;;;5014850;28;20678;-49
2021/04/26 03:47:22;;;;;;;3.83;1.85;;;4.00;63.40;;;;;;5014906;28;20660;-50
2021/04/26 03:50:28;;;;;;;2.42;1.48;;;4.10;63.20;;;;;;5032807;28;20211;-48
2021/04/26 03:53:12;;;;;;;4.95;2.15;;;4.10;63.10;;;;;;5032888;28;20675;-48
2021/04/26 03:56:01;;;;;;;6.03;2.05;;;4.10;63.30;;;;;;5031662;28;20228;-47
2021/04/26 03:58:29;;;;;;;9.32;2.08;;;4.10;63.50;;;;;;5016056;28;20246;-47
2021/04/26 04:00:57;;;;;;;6.45;2.40;;;3.90;64.20;;;;;;5014837;28;20203;-47
2021/04/26 04:03:23;;;;;;;8.45;2.00;;;4.20;64.70;;;;;;5033751;28;20284;-48
2021/04/26 04:05:52;;;;;;;3.70;2.13;;;3.90;63.80;;;;;;5016556;28;20200;-49
2021/04/26 04:08:36;;;;;;;6.03;2.20;;;3.90;64.10;;;;;;5034563;28;20242;-49
2021/04/26 04:11:36;;;;;;;8.93;3.03;;;3.90;64.90;;;;;;5033839;28;20201;-47
2021/04/26 04:14:29;;;;;;;6.70;2.78;;;3.60;64.60;;;;;;5015710;28;20723;-48
2021/04/26 04:17:04;;;;;;;6.80;2.97;;;4.00;64.50;;;;;;5032463;28;20217;-47
2021/04/26 04:19:31;;;;;;;7.22;2.05;;;4.10;65.60;;;;;;5014614;28;20201;-48
2021/04/26 04:21:58;;;;;;;3.72;1.75;;;3.60;64.60;;;;;;5014466;28;20204;-48
2021/04/26 04:24:25;;;;;;;3.28;1.92;;;3.40;64.20;;;;;;5032002;28;20288;-48
2021/04/26 04:26:52;;;;;;;5.30;1.80;;;3.80;65.50;;;;;;5018293;28;20730;-48
2021/04/26 04:29:19;;;;;;;4.10;1.90;;;3.90;65.90;;;;;;5032055;28;20704;-50
2021/04/26 04:31:52;;;;;;;5.63;2.10;;;3.90;65.80;;;;;;5014496;28;20564;-48
2021/04/26 04:34:42;;;;;;;4.07;2.67;;;4.10;65.90;;;;;;5013039;28;20216;-49
2021/04/26 04:37:28;;;;;;;9.20;2.50;;;4.00;65.70;;;;;;5053497;22;20248;-49
2021/04/26 04:40:13;;;;;;;5.10;2.05;;;3.70;66.40;;;;;;5030452;28;20254;-49
2021/04/26 04:43:05;;;;;;;6.80;3.03;;;3.90;66.70;;;;;;5026727;28;20619;-49
2021/04/26 04:45:45;;;;;;;4.70;1.98;;;3.90;67.00;;;;;;5012632;28;20312;-49
2021/04/26 04:48:30;;;;;;;7.00;2.20;;;4.00;67.10;;;;;;5010556;28;20613;-49
2021/04/26 04:50:59;;;;;;;4.70;2.00;;;3.90;67.10;;;;;;4992842;28;20213;-48
2021/04/26 04:53:25;;;;;;;7.18;2.00;;;4.10;67.40;;;;;;4992651;28;20208;-48
2021/04/26 04:55:51;;;;;;;6.85;2.88;;;4.20;67.70;;;;;;4992588;28;20281;-49
2021/04/26 04:58:22;;;;;;;2.78;1.83;;;4.40;67.90;;;;;;4992556;28;20462;-49
2021/04/26 05:00:49;;;;;;;5.07;2.08;;;3.90;67.70;;;;;;4992355;28;20216;-48
2021/04/26 05:03:33;;;;;;;3.70;2.00;;;4.40;68.10;;;;;;4994810;28;20204;-47
2021/04/26 05:06:19;;;;;;;3.92;1.95;;;3.80;67.60;;;;;;5010170;28;20307;-50
2021/04/26 05:09:04;;;;;;;9.02;2.85;;;4.40;67.90;;;;;;5010427;28;20212;-48
2021/04/26 05:11:53;;;;;;;6.05;2.35;;;4.40;67.80;;;;;;5011688;28;20208;-48
2021/04/26 05:14:38;;;;;;;4.10;1.88;;;4.60;67.80;;;;;;4996063;28;20196;-49
2021/04/26 05:17:05;;;;;;;4.10;2.17;;;4.40;66.70;;;;;;5013869;28;20237;-50
2021/04/26 05:19:32;;;;;;;4.40;2.13;;;4.90;67.50;;;;;;5014447;28;20255;-48
2021/04/26 05:22:00;;;;;;;4.05;1.83;;;4.50;66.80;;;;;;5013829;28;20269;-49
2021/04/26 05:24:26;;;;;;;7.70;2.08;;;4.80;66.70;;;;;;4995896;28;20396;-48
2021/04/26 05:26:53;;;;;;;3.03;2.05;;;4.90;66.60;;;;;;4996087;28;20698;-49
2021/04/26 05:29:20;;;;;;;5.78;1.80;;;5.00;66.60;;;;;;5013679;28;20216;-48
2021/04/26 05:31:46;;;;;;;9.88;2.33;;;4.90;66.20;;;;;;4995425;28;20288;-49
2021/04/26 05:34:13;;;;;;;4.55;2.08;;;4.90;66.00;;;;;;4995347;28;20205;-48
2021/04/26 05:36:42;;;;;;;5.80;2.50;;;5.10;66.00;;;;;;4995269;28;20225;-47
2021/04/26 05:39:10;;;;;;;5.38;2.75;;;5.10;65.80;;;;;;5013304;28;20209;-49
2021/04/26 05:41:37;;;;;;;10.10;2.13;;;5.40;66.10;;;;;;4995493;28;20224;-48
2021/04/26 05:44:05;;;;;;;6.43;2.28;;;5.60;66.20;;;;;;4994180;28;20240;-48
2021/04/26 05:46:43;;;;;;;6.50;1.95;;;5.50;65.60;;;;;;4995113;28;20356;-48
2021/04/26 05:49:09;;;;;;;4.78;1.80;;;5.50;65.30;;;;;;4995385;28;20197;-49
2021/04/26 05:51:36;;;;;;;2.90;1.70;;;5.10;64.40;;;;;;5013031;28;20225;-49
2021/04/26 05:54:02;;;;;;;7.10;2.13;;;5.70;64.50;;;;;;5012769;28;20216;-50
2021/04/26 05:56:29;;;;;;;3.90;1.80;;;5.60;64.20;;;;;;5012620;28;20218;-49
2021/04/26 05:58:55;;;;;;;6.22;2.67;;;5.90;64.70;;;;;;5012914;28;20707;-50
2021/04/26 06:01:22;;;;;;;3.80;1.85;;;6.00;65.10;;;;;;5012838;28;20201;-50
2021/04/26 06:03:48;;;;;;;4.35;1.55;;;6.10;65.30;;;;;;5012205;28;20352;-49
2021/04/26 06:06:14;;;;;;;3.33;1.98;;;6.10;65.30;;;;;;5012744;28;20224;-49
2021/04/26 06:08:41;;;;;;;3.40;1.93;;;6.20;64.80;;;;;;5012275;28;20292;-50
2021/04/26 06:11:07;;;;;;;4.07;1.87;;;6.30;64.30;;;;;;5012890;28;20437;-49
2021/04/26 06:13:34;;;;;;;5.10;2.10;;;6.30;64.70;;;;;;5012260;28;20469;-49
2021/04/26 06:16:01;;;;;;;9.73;1.80;;;5.80;63.70;;;;;;5012456;28;20435;-49
2021/04/26 06:18:27;;;;;;;3.63;1.60;;;6.70;64.40;;;;;;5012224;28;20860;-49
2021/04/26 06:20:54;;;;;;;3.17;1.80;;;6.90;64.80;;;;;;5012700;28;20922;-50
2021/04/26 06:23:21;;;;;;;2.97;1.60;;;6.90;64.60;;;;;;5011202;28;20439;-48
2021/04/26 06:25:48;;;;;;;2.80;1.60;;;6.80;64.40;;;;;;5012356;28;20486;-49
2021/04/26 06:28:15;;;;;;;2.60;1.67;;;6.80;64.20;;;;;;5012168;28;20616;-50
2021/04/26 06:30:44;;;;;;;8.30;2.70;;;6.60;63.80;;;;;;5011868;28;20893;-49
2021/04/26 06:33:15;;;;;;;3.10;1.60;;;7.20;64.10;;;;;;5011794;28;20437;-49
2021/04/26 06:35:42;;;;;;;5.50;2.13;;;6.90;63.80;;;;;;5012523;28;20432;-50
2021/04/26 06:38:08;;;;;;;3.13;1.90;;;6.90;63.70;;;;;;5012115;28;21074;-50
2021/04/26 06:40:34;;;;;;;5.97;1.67;;;7.20;63.00;;;;;;5012269;28;20439;-49
2021/04/26 06:43:01;;;;;;;3.50;1.33;;;7.00;62.60;;;;;;5011911;28;20436;-50
2021/04/26 06:45:27;;;;;;;4.33;1.57;;;7.30;63.30;;;;;;4994339;28;20514;-49
2021/04/26 06:47:55;;;;;;;5.47;1.80;;;7.40;63.10;;;;;;5012379;28;20477;-48
2021/04/26 06:50:22;;;;;;;5.50;1.90;;;7.30;62.40;;;;;;5011575;28;20892;-49
2021/04/26 06:52:50;;;;;;;3.60;1.10;;;7.30;62.00;;;;;;5011435;28;20507;-50
2021/04/26 06:55:16;;;;;;;9.10;1.70;;;7.30;62.10;;;;;;5011901;28;20460;-49
2021/04/26 06:57:43;;;;;;;4.90;1.93;;;7.10;60.90;;;;;;5011222;28;20490;-49
2021/04/26 07:00:11;;;;;;;3.23;1.57;;;7.50;61.20;;;;;;5011662;28;20451;-49
2021/04/26 07:02:37;;;;;;;5.63;1.70;;;7.40;61.80;;;;;;5011673;28;20441;-49
2021/04/26 07:05:06;;;;;;;6.10;1.77;;;7.10;60.80;;;;;;5011992;28;20544;-48
2021/04/26 07:07:32;;;;;;;4.00;1.70;;;7.60;61.10;;;;;;5011551;28;20573;-48
2021/04/26 07:09:59;;;;;;;6.60;2.10;;;6.90;60.50;;;;;;5012253;28;20438;-48
2021/04/26 07:12:25;;;;;;;3.87;1.33;;;7.50;60.50;;;;;;5011694;28;20438;-48
2021/04/26 07:14:52;;;;;;;3.00;1.30;;;7.50;61.10;;;;;;5011593;28;20434;-49
2021/04/26 07:17:19;;;;;;;7.47;1.80;;;7.50;59.00;;;;;;5011873;28;20544;-49
2021/04/26 07:19:46;;;;;;;2.57;1.07;;;7.60;59.20;;;;;;5011869;28;20453;-49
2021/04/26 07:22:13;;;;;;;4.93;1.60;;;7.70;59.20;;;;;;5011877;28;20532;-49
2021/04/26 07:24:39;;;;;;;4.87;1.40;;;7.50;59.00;;;;;;5011011;28;20433;-51
2021/04/26 07:27:06;;;;;;;2.63;1.13;;;7.60;58.40;;;;;;5012116;28;20472;-49
2021/04/26 07:29:32;;;;;;;3.57;1.60;;;7.40;56.70;;;;;;4993864;28;20453;-49
2021/04/26 07:31:58;;;;;;;2.60;1.60;;;7.40;56.80;;;;;;5011292;28;20442;-49
2021/04/26 07:34:25;;;;;;;2.80;1.20;;;7.50;57.70;;;;;;5011261;28;20533;-51
2021/04/26 07:36:51;;;;;;;5.43;1.30;;;7.40;58.00;;;;;;5010927;28;20469;-50
2021/04/26 07:39:19;;;;;;;2.50;1.40;;;7.90;58.20;;;;;;5010848;28;20440;-49
2021/04/26 07:41:46;;;;;;;2.47;1.20;;;7.60;57.40;;;;;;5011287;28;20488;-49
2021/04/26 07:44:12;;;;;;;3.50;0.90;;;7.70;54.90;;;;;;5010509;28;20436;-49
2021/04/26 07:46:39;;;;;;;3.33;1.43;;;7.50;55.40;;;;;;5010858;28;20767;-49
2021/04/26 07:49:05;;;;;;;3.67;1.40;;;7.50;55.80;;;;;;5011008;28;20866;-48
2021/04/26 07:51:33;;;;;;;1.90;1.10;;;7.30;56.00;;;;;;4993257;28;20451;-49
2021/04/26 07:53:59;;;;;;;2.80;1.10;;;7.90;56.00;;;;;;5010773;28;20512;-49
2021/04/26 07:56:26;;;;;;;8.50;1.70;;;7.60;55.00;;;;;;4993296;28;20482;-48
2021/04/26 07:58:53;;;;;;;2.87;1.30;;;7.90;53.70;;;;;;5011833;28;20859;-49
2021/04/26 08:01:19;;;;;;;1.50;0.97;;;8.00;54.40;;;;;;5011393;28;20864;-50
2021/04/26 08:03:45;;;;;;;1.80;1.30;;;7.80;54.00;;;;;;5010937;28;20498;-48
2021/04/26 08:06:12;;;;;;;3.10;1.00;;;7.70;54.40;;;;;;5010981;28;20438;-50
2021/04/26 08:08:38;;;;;;;1.80;1.07;;;8.00;55.00;;;;;;5011187;28;20505;-49
2021/04/26 08:11:05;;;;;;;3.27;1.27;;;7.80;54.20;;;;;;5011301;28;20768;-50
2021/04/26 08:13:32;;;;;;;1.70;1.20;;;8.30;54.30;;;;;;5011295;28;20926;-49
2021/04/26 08:15:59;;;;;;;4.90;1.60;;;7.40;53.80;;;;;;5011208;28;20532;-50
2021/04/26 08:18:26;;;;;;;5.23;1.30;;;7.80;53.10;;;;;;5010562;28;20790;-50
2021/04/26 08:20:53;;;;;;;4.10;1.07;;;8.00;53.50;;;;;;5010721;28;21021;-51
2021/04/26 08:23:19;;;;;;;3.67;1.53;;;8.20;53.80;;;;;;5010486;28;20955;-50
2021/04/26 08:25:45;;;;;;;4.37;1.17;;;8.00;53.50;;;;;;4993116;28;20438;-50
2021/04/26 08:28:14;;;;;;;3.17;1.10;;;7.80;53.10;;;;;;5010656;28;21052;-50
2021/04/26 08:30:41;;;;;;;2.20;1.23;;;7.90;53.30;;;;;;4992990;28;20442;-50
2021/04/26 08:33:08;;;;;;;4.90;1.00;;;8.10;53.40;;;;;;5010090;28;20932;-51
2021/04/26 08:35:35;;;;;;;2.50;1.13;;;7.60;52.60;;;;;;5010098;28;20434;-50
2021/04/26 08:38:01;;;;;;;2.37;1.20;;;7.70;51.60;;;;;;5009540;28;20467;-51
2021/04/26 08:40:28;;;;;;;9.60;1.23;;;8.30;52.10;;;;;;4991663;28;20485;-51
2021/04/26 08:42:57;;;;;;;5.83;1.77;;;8.20;51.70;;;;;;5010122;28;20438;-50
2021/04/26 08:45:23;;;;;;;2.37;1.30;;;8.10;51.80;;;;;;5010483;28;20429;-50
2021/04/26 08:47:51;;;;;;;6.10;1.50;;;8.30;51.50;;;;;;5009132;28;20894;-50
2021/04/26 08:50:18;;;;;;;5.03;1.23;;;8.30;51.70;;;;;;5009755;28;20457;-50
2021/04/26 08:52:44;;;;;;;1.43;1.10;;;8.50;51.60;;;;;;5010197;28;20446;-51
2021/04/26 08:55:12;;;;;;;2.03;1.07;;;8.00;51.00;;;;;;5010326;28;20764;-50
2021/04/26 08:57:39;;;;;;;2.17;1.10;;;8.50;50.90;;;;;;5009851;28;20539;-50
2021/04/26 09:00:07;;;;;;;1.47;1.00;;;8.50;50.20;;;;;;5010185;28;20442;-50
2021/04/26 09:02:43;;;;;;;4.93;1.23;;;9.00;49.90;;;;;;5009968;28;20529;-50
2021/04/26 09:05:21;;;;;;;4.30;1.47;;;8.90;50.20;;;;;;5010415;28;20443;-50
2021/04/26 09:07:50;;;;;;;2.83;1.97;;;9.40;50.50;;;;;;5010227;28;20587;-50
2021/04/26 09:10:17;;;;;;;6.90;1.30;;;9.40;49.70;;;;;;4992420;28;20943;-50
2021/04/26 09:12:43;;;;;;;5.30;1.10;;;9.00;49.40;;;;;;5009844;28;20527;-51
2021/04/26 09:15:11;;;;;;;1.80;0.93;;;9.60;48.00;;;;;;5010201;28;20447;-50
2021/04/26 09:17:39;;;;;;;2.20;1.03;;;9.90;47.10;;;;;;5009942;28;20956;-51
2021/04/26 09:20:23;;;;;;;1.83;1.00;;;9.90;46.40;;;;;;5010173;28;20454;-51
2021/04/26 09:22:52;;;;;;;2.30;1.00;;;9.60;46.40;;;;;;5010116;28;20455;-51
2021/04/26 09:25:27;;;;;;;4.50;1.13;;;10.50;46.00;;;;;;5010399;28;20462;-51
2021/04/26 09:27:56;;;;;;;4.60;1.43;;;10.30;46.10;;;;;;5009453;28;20593;-51
2021/04/26 09:30:46;;;;;;;2.80;0.97;;;10.60;46.30;;;;;;5009948;28;20764;-50
2021/04/26 09:33:16;;;;;;;4.27;1.03;;;10.20;45.00;;;;;;5009331;28;20436;-51
2021/04/26 09:35:44;;;;;;;6.77;3.53;;;10.50;45.90;;;;;;5009812;28;20425;-51
2021/04/26 09:38:27;;;;;;;16.27;3.10;;;10.40;45.70;;;;;;5009507;28;20956;-49
2021/04/26 09:41:24;;;;;;;4.73;1.10;;;10.50;45.70;;;;;;5008457;28;20460;-51
2021/04/26 09:44:02;;;;;;;2.33;1.20;;;9.80;46.30;;;;;;4986300;28;20953;-51
2021/04/26 09:46:39;;;;;;;3.10;1.33;;;10.40;45.80;;;;;;5010075;28;20495;-49
2021/04/26 09:49:08;;;;;;;5.27;2.10;;;10.80;46.90;;;;;;5009659;28;20547;-50
2021/04/26 09:51:36;;;;;;;4.23;2.30;;;10.40;47.30;;;;;;5009787;28;20432;-50
2021/04/26 09:54:04;;;;;;;6.30;1.50;;;10.50;47.40;;;;;;5009120;28;20532;-50
2021/04/26 09:56:38;;;;;;;6.53;1.60;;;10.40;47.20;;;;;;5009072;28;20976;-50
2021/04/26 09:59:05;;;;;;;3.40;1.30;;;10.50;47.10;;;;;;5010659;28;20539;-49
2021/04/26 10:01:32;;;;;;;4.90;1.50;;;10.50;47.30;;;;;;5012763;28;20436;-49
2021/04/26 10:04:00;;;;;;;2.50;1.10;;;10.60;47.20;;;;;;5012774;28;20975;-49
2021/04/26 10:06:27;;;;;;;6.10;1.30;;;10.70;46.60;;;;;;5012934;28;20635;-50
2021/04/26 10:08:56;;;;;;;3.30;0.90;;;10.70;45.10;;;;;;5012612;28;20498;-52
2021/04/26 10:11:26;;;;;;;3.30;1.50;;;10.70;44.20;;;;;;5012889;28;20721;-50
2021/04/26 10:14:01;;;;;;;3.30;1.30;;;10.80;44.40;;;;;;5012455;28;20433;-50
2021/04/26 10:16:36;;;;;;;3.57;0.93;;;10.40;44.10;;;;;;5013088;28;20460;-50
2021/04/26 10:19:05;;;;;;;3.67;1.40;;;11.00;44.20;;;;;;5012612;28;20432;-49
2021/04/26 10:21:34;;;;;;;6.40;1.23;;;10.50;43.40;;;;;;5012558;28;20421;-50
2021/04/26 10:24:18;;;;;;;3.80;1.40;;;10.70;44.10;;;;;;5012404;28;20528;-50
2021/04/26 10:26:48;;;;;;;1.90;0.90;;;10.90;44.20;;;;;;5011981;28;20935;-50
2021/04/26 10:29:19;;;;;;;3.17;1.77;;;11.10;44.80;;;;;;5012124;28;20463;-51
2021/04/26 10:32:18;;;;;;;3.23;1.17;;;10.90;44.80;;;;;;5012195;28;20913;-50
2021/04/26 10:35:10;;;;;;;3.47;1.10;;;10.30;44.60;;;;;;5012250;28;20452;-51
2021/04/26 10:37:37;;;;;;;8.10;4.03;;;11.40;45.70;;;;;;5047502;23;20518;-49
2021/04/26 10:40:17;;;;;;;4.93;1.30;;;10.40;44.30;;;;;;5033400;28;20431;-47
2021/04/26 10:42:45;;;;;;;3.80;1.30;;;11.00;45.20;;;;;;5033248;28;20936;-48
2021/04/26 10:45:23;;;;;;;5.17;1.17;;;11.20;44.60;;;;;;5033726;28;20570;-48
2021/04/26 10:48:11;;;;;;;3.47;1.57;;;11.30;44.40;;;;;;5033370;28;20850;-47
2021/04/26 10:50:50;;;;;;;4.27;1.10;;;11.30;44.60;;;;;;5033781;28;20515;-49
2021/04/26 10:53:16;;;;;;;5.33;1.73;;;11.10;44.90;;;;;;5033481;28;20849;-48
2021/04/26 10:55:55;;;;;;;5.93;1.83;;;11.40;45.90;;;;;;5033748;28;20436;-50
2021/04/26 10:58:34;;;;;;;3.30;1.30;;;11.30;45.50;;;;;;5033571;28;20444;-49
2021/04/26 11:01:00;;;;;;;2.90;1.60;;;11.30;45.30;;;;;;5032932;28;20443;-48
2021/04/26 11:03:35;;;;;;;4.00;1.40;;;11.40;45.20;;;;;;5033287;28;20827;-47
2021/04/26 11:06:25;;;;;;;5.00;1.70;;;11.40;43.90;;;;;;5032922;28;20439;-47
2021/04/26 11:09:06;;;;;;;6.13;1.30;;;11.40;44.00;;;;;;5032541;28;20636;-47
2021/04/26 11:11:53;;;;;;;3.20;1.20;;;11.80;44.20;;;;;;5032796;28;20770;-48
2021/04/26 11:14:26;;;;;;;2.47;1.17;;;11.90;44.00;;;;;;5032200;28;20468;-47
2021/04/26 11:16:54;;;;;;;8.00;1.40;;;11.80;43.40;;;;;;5033032;28;20447;-47
2021/04/26 11:19:21;;;;;;;3.03;1.10;;;11.60;42.00;;;;;;5032829;28;20432;-48
2021/04/26 11:21:56;;;;;;;7.23;1.43;;;11.60;41.80;;;;;;5033276;28;20491;-48
2021/04/26 11:24:48;;;;;;;4.03;1.13;;;11.40;42.40;;;;;;5033430;28;20445;-48
2021/04/26 11:27:23;;;;;;;2.33;1.00;;;11.60;42.10;;;;;;5033651;28;20475;-48
2021/04/26 11:30:19;;;;;;;3.13;1.20;;;11.70;42.60;;;;;;5032636;28;20493;-47
2021/04/26 11:33:17;;;;;;;3.40;1.20;;;11.80;42.10;;;;;;5014364;28;20556;-47
2021/04/26 11:36:20;;;;;;;3.43;1.10;;;11.90;42.10;;;;;;5032307;28;20929;-47
2021/04/26 11:38:47;;;;;;;4.07;1.10;;;11.60;41.80;;;;;;5032025;28;20435;-49
2021/04/26 11:41:15;;;;;;;6.80;1.30;;;11.50;41.70;;;;;;5032709;28;20863;-47
2021/04/26 11:43:50;;;;;;;5.00;2.00;;;11.50;42.10;;;;;;5033014;28;20437;-47
2021/04/26 11:46:30;;;;;;;2.73;1.40;;;11.50;43.10;;;;;;5032179;28;20448;-49
2021/04/26 11:49:20;;;;;;;3.07;1.30;;;12.00;43.20;;;;;;5031612;28;20483;-48
2021/04/26 11:51:49;;;;;;;3.63;1.67;;;12.00;43.00;;;;;;5032115;28;20459;-48
2021/04/26 11:54:17;;;;;;;4.87;1.77;;;11.80;42.80;;;;;;5031965;28;20519;-48
2021/04/26 11:56:59;;;;;;;3.27;1.40;;;11.90;42.70;;;;;;5031905;28;20455;-48
2021/04/26 11:59:27;;;;;;;5.50;1.50;;;12.10;42.20;;;;;;5031954;28;20454;-49
2021/04/26 12:01:55;;;;;;;2.93;1.20;;;12.30;41.90;;;;;;5032392;28;20471;-48
2021/04/26 12:04:37;;;;;;;5.60;1.23;;;12.30;41.60;;;;;;5032328;28;20494;-49
2021/04/26 12:07:04;;;;;;;1.53;0.93;;;12.50;41.30;;;;;;5032249;28;20443;-49
2021/04/26 12:09:31;;;;;;;2.60;1.10;;;12.30;40.20;;;;;;5032966;28;20469;-47
2021/04/26 12:12:00;;;;;;;2.30;1.10;;;12.30;40.60;;;;;;5032274;28;20475;-46
2021/04/26 12:14:28;;;;;;;2.80;0.90;;;12.30;40.20;;;;;;5031868;28;20810;-47
2021/04/26 12:17:14;;;;;;;2.67;1.53;;;12.40;39.80;;;;;;5032020;28;20496;-48
2021/04/26 12:19:42;;;;;;;1.80;1.07;;;12.30;39.60;;;;;;5031651;28;20536;-47
2021/04/26 12:22:08;;;;;;;1.67;1.20;;;12.40;39.70;;;;;;5031792;28;20436;-48
2021/04/26 12:24:35;;;;;;;6.40;1.30;;;12.30;39.00;;;;;;5035426;28;20500;-47
2021/04/26 12:27:08;;;;;;;2.50;1.03;;;12.00;38.70;;;;;;5031888;28;20459;-48
2021/04/26 12:29:35;;;;;;;3.97;1.70;;;12.10;39.00;;;;;;5014286;28;20445;-47
2021/04/26 12:32:09;;;;;;;1.87;1.00;;;11.90;39.20;;;;;;5031681;28;20489;-48
2021/04/26 12:34:46;;;;;;;3.73;1.63;;;12.10;39.00;;;;;;5032114;28;20435;-47
2021/04/26 12:37:14;;;;;;;4.20;1.30;;;12.40;38.90;;;;;;5032500;28;20486;-49
2021/04/26 12:39:40;;;;;;;3.03;1.20;;;12.30;39.10;;;;;;5014427;28;20856;-48
2021/04/26 12:42:12;;;;;;;4.70;1.20;;;12.30;39.20;;;;;;5032401;28;20866;-48
2021/04/26 12:44:39;;;;;;;2.70;1.23;;;12.30;39.00;;;;;;4997466;28;20453;-49
2021/04/26 12:47:17;;;;;;;3.70;1.80;;;12.20;38.50;;;;;;5032693;28;20455;-48
2021/04/26 12:49:43;;;;;;;2.63;1.23;;;12.30;38.80;;;;;;5031749;28;20590;-47
2021/04/26 12:52:17;;;;;;;6.10;1.60;;;11.90;38.60;;;;;;5031866;28;20489;-49
2021/04/26 12:55:06;;;;;;;2.43;1.40;;;12.50;39.00;;;;;;5031606;28;20429;-49
2021/04/26 12:57:32;;;;;;;5.07;1.47;;;12.20;38.10;;;;;;5031776;28;20940;-48
2021/04/26 12:59:59;;;;;;;2.80;1.40;;;12.10;39.10;;;;;;5031855;28;20491;-47
2021/04/26 13:02:29;;;;;;;3.67;1.10;;;11.70;39.30;;;;;;5013680;28;20463;-47
2021/04/26 13:04:56;;;;;;;3.70;1.30;;;11.60;39.60;;;;;;5032148;28;20430;-48
2021/04/26 13:07:23;;;;;;;3.73;1.80;;;11.40;39.70;;;;;;5031506;28;21076;-48
2021/04/26 13:10:08;;;;;;;1.60;1.00;;;11.50;40.00;;;;;;5031666;28;20420;-46
2021/04/26 13:12:34;;;;;;;2.13;1.23;;;11.50;40.00;;;;;;5031821;28;20462;-47
2021/04/26 13:15:03;;;;;;;1.57;1.03;;;11.40;39.80;;;;;;5013548;28;20443;-47